Watford, Canada
Current Conditions -  °F | °C
As of 5:00 PM on Wednesday 22 Oct 2014 (Local Time) from CYZR Reporting Station
Scattered Clouds Scattered Clouds  
Wind Chill: 50°   Ceiling: Unl
Heat Index: 50°   Visibility: 9mi
Dew Point: 41°   Wind: 17mph
Humidity: 71%   Direction: 350°N
Pressure: 30.29"   Gusts: 23mph
Location:  42.95°N, 81.88°W
Report Text: CYZR 222100Z AUTO 35015G20KT 9SM SCT019 10/05 A3029 RMK SLP260
Loading
Personal Weather Stations






























Interactive Weather Map New forecast layout! Learn more

10-Day Weather Forecast

Advertisements
Track Severe Weather on mobile